Time;durP1;ratioP1;P1;durP2;ratioP2;P2;SDS_P1;SDS_P2;PMS_P1;PMS_P2;Temp;Humidity;BMP_temperature;BMP_pressure;BME280_temperature;BME280_humidity;BME280_pressure;Samples;Min_cycle;Max_cycle;Signal;HPM_P1;HPM_P2
2024/04/04 00:02:29;;;;;;;1.27;0.50;;;;;;;9.73;91.61;97369.38;6289288;28;20662;-52
2024/04/04 00:05:30;;;;;;;0.90;0.50;;;;;;;9.74;92.26;97376.28;6292160;28;20192;-55
2024/04/04 00:08:31;;;;;;;0.53;0.40;;;;;;;9.57;93.31;97352.38;6293425;28;20207;-54
2024/04/04 00:11:33;;;;;;;0.60;0.40;;;;;;;9.67;95.93;97364.22;6298531;28;20920;-54
2024/04/04 00:14:34;;;;;;;0.50;0.43;;;;;;;9.71;92.92;97370.66;6293715;28;20192;-52
2024/04/04 00:17:36;;;;;;;1.60;0.40;;;;;;;9.87;93.36;97363.72;6302485;28;20183;-53
2024/04/04 00:20:39;;;;;;;0.43;0.23;;;;;;;9.75;95.71;97364.63;6295227;28;20302;-51
2024/04/04 00:23:40;;;;;;;0.87;0.60;;;;;;;9.55;98.33;97354.47;6309574;28;20186;-54
2024/04/04 00:26:41;;;;;;;0.70;0.37;;;;;;;9.63;100.00;97363.09;6279272;28;20962;-54
2024/04/04 00:29:42;;;;;;;0.37;0.33;;;;;;;9.57;100.00;97373.66;6296502;28;20208;-54
2024/04/04 00:32:43;;;;;;;0.40;0.40;;;;;;;9.55;100.00;97367.75;6290679;28;20624;-53
2024/04/04 00:35:45;;;;;;;1.37;0.30;;;;;;;9.41;100.00;97377.13;6294356;28;20204;-54
2024/04/04 00:38:48;;;;;;;0.90;0.40;;;;;;;9.45;100.00;97370.25;6300854;28;20195;-53
2024/04/04 00:41:50;;;;;;;1.50;0.40;;;;;;;9.41;100.00;97374.47;6288616;28;20198;-54
2024/04/04 00:44:51;;;;;;;0.50;0.40;;;;;;;9.33;100.00;97366.88;6289224;28;20192;-54
2024/04/04 00:47:52;;;;;;;1.13;0.50;;;;;;;9.29;100.00;97376.38;6288076;28;20199;-55
2024/04/04 00:50:54;;;;;;;0.77;0.30;;;;;;;9.32;100.00;97375.13;6295592;28;20213;-53
2024/04/04 00:53:56;;;;;;;0.87;0.47;;;;;;;9.28;100.00;97372.13;6287664;28;20194;-53
2024/04/04 00:56:57;;;;;;;2.33;0.40;;;;;;;9.23;100.00;97382.66;6287360;28;20555;-56
2024/04/04 00:59:59;;;;;;;1.70;0.60;;;;;;;9.16;100.00;97377.50;6288499;28;20188;-56
2024/04/04 01:03:00;;;;;;;2.13;0.50;;;;;;;9.13;100.00;97385.16;6293883;28;20286;-54
2024/04/04 01:06:01;;;;;;;0.93;0.50;;;;;;;9.08;100.00;97382.41;6285842;28;20198;-53
2024/04/04 01:09:02;;;;;;;0.60;0.50;;;;;;;9.08;100.00;97377.91;6275706;28;20669;-55
2024/04/04 01:12:04;;;;;;;0.67;0.60;;;;;;;9.04;100.00;97380.22;6292321;28;20258;-55
2024/04/04 01:15:08;;;;;;;1.67;0.60;;;;;;;9.28;100.00;97382.75;6289582;28;20202;-53
2024/04/04 01:18:09;;;;;;;1.20;0.70;;;;;;;9.18;100.00;97372.75;6287725;28;20566;-54
2024/04/04 01:21:10;;;;;;;0.73;0.60;;;;;;;8.99;100.00;97364.19;6293989;28;20187;-56
2024/04/04 01:24:11;;;;;;;1.70;0.77;;;;;;;8.88;100.00;97375.69;6270552;28;20577;-55
2024/04/04 01:27:12;;;;;;;0.60;0.50;;;;;;;8.83;100.00;97383.56;6291293;28;20186;-54
2024/04/04 01:30:14;;;;;;;1.20;0.57;;;;;;;8.77;100.00;97379.22;6299643;28;20556;-55
2024/04/04 01:33:15;;;;;;;0.60;0.30;;;;;;;8.71;100.00;97372.97;6285927;28;20201;-55
2024/04/04 01:36:16;;;;;;;0.73;0.60;;;;;;;8.57;100.00;97365.53;6288665;28;20216;-55
2024/04/04 01:39:17;;;;;;;0.93;0.50;;;;;;;8.71;100.00;97375.63;6291658;28;20182;-56
2024/04/04 01:42:18;;;;;;;1.27;0.50;;;;;;;8.92;100.00;97379.47;6291960;28;20602;-54
2024/04/04 01:45:19;;;;;;;0.67;0.47;;;;;;;8.97;100.00;97371.59;6287336;28;20196;-55
2024/04/04 01:48:20;;;;;;;0.30;0.30;;;;;;;8.99;100.00;97371.34;6287980;28;20193;-55
2024/04/04 01:51:21;;;;;;;0.57;0.40;;;;;;;8.88;100.00;97380.19;6290770;28;20561;-54
2024/04/04 01:54:22;;;;;;;1.23;0.50;;;;;;;8.95;100.00;97379.00;6291024;28;20207;-55
2024/04/04 01:57:24;;;;;;;0.43;0.40;;;;;;;9.00;100.00;97378.28;6292861;28;20198;-54
2024/04/04 02:00:28;;;;;;;0.77;0.47;;;;;;;9.24;100.00;97363.00;6294839;28;20550;-54
2024/04/04 02:03:29;;;;;;;1.17;0.57;;;;;;;9.34;100.00;97379.13;6286098;28;20194;-54
2024/04/04 02:06:30;;;;;;;0.60;0.40;;;;;;;9.40;100.00;97370.19;6297035;28;20246;-55
2024/04/04 02:09:31;;;;;;;0.73;0.37;;;;;;;9.28;100.00;97361.50;6293326;28;20253;-54
2024/04/04 02:12:32;;;;;;;0.80;0.50;;;;;;;9.17;100.00;97362.38;6302172;28;20193;-56
2024/04/04 02:15:41;;;;;;;0.90;0.40;;;;;;;9.37;100.00;97364.56;6297960;28;20554;-55
2024/04/04 02:18:42;;;;;;;0.53;0.40;;;;;;;9.34;100.00;97373.81;6295137;28;20234;-55
2024/04/04 02:21:43;;;;;;;0.43;0.43;;;;;;;9.22;100.00;97381.06;6306758;28;20246;-53
2024/04/04 02:24:44;;;;;;;0.50;0.40;;;;;;;9.48;100.00;97379.63;6320968;28;20757;-56
2024/04/04 02:27:45;;;;;;;1.13;0.50;;;;;;;9.50;100.00;97377.50;6315774;28;20604;-54
2024/04/04 02:30:46;;;;;;;0.93;0.90;;;;;;;9.74;98.96;97378.16;6308710;28;20579;-55
2024/04/04 02:33:47;;;;;;;0.80;0.60;;;;;;;9.67;100.00;97385.50;6303911;28;20210;-55
2024/04/04 02:36:48;;;;;;;0.63;0.60;;;;;;;9.67;100.00;97380.97;6302985;28;20186;-55
2024/04/04 02:39:49;;;;;;;0.70;0.60;;;;;;;9.73;100.00;97376.53;6310007;28;20609;-54
2024/04/04 02:42:52;;;;;;;1.00;0.73;;;;;;;9.78;100.00;97372.09;6310065;28;20313;-55
2024/04/04 02:46:01;;;;;;;1.60;0.70;;;;;;;10.00;97.22;97382.81;6302282;28;20780;-54
2024/04/04 02:49:04;;;;;;;0.63;0.60;;;;;;;10.06;98.65;97381.81;6305974;28;20210;-54
2024/04/04 02:52:05;;;;;;;2.27;0.70;;;;;;;10.01;99.34;97373.75;6305964;28;20200;-56
2024/04/04 02:55:06;;;;;;;1.57;0.70;;;;;;;9.92;100.00;97369.91;6292270;28;20218;-55
2024/04/04 02:58:07;;;;;;;0.50;0.50;;;;;;;9.98;98.98;97379.56;6302318;28;20193;-55
2024/04/04 03:01:08;;;;;;;0.90;0.63;;;;;;;10.16;98.66;97378.47;6315171;28;20268;-55
2024/04/04 03:04:09;;;;;;;1.83;1.00;;;;;;;10.15;96.41;97376.88;6307924;28;20701;-54
2024/04/04 03:07:10;;;;;;;0.53;0.50;;;;;;;10.17;96.87;97390.72;6288280;28;20203;-53
2024/04/04 03:10:12;;;;;;;0.80;0.60;;;;;;;10.39;95.08;97381.97;6289273;28;20234;-54
2024/04/04 03:13:13;;;;;;;0.70;0.70;;;;;;;10.31;94.95;97388.56;6302741;28;20187;-54
2024/04/04 03:16:14;;;;;;;1.87;0.70;;;;;;;10.24;100.00;97387.91;6313603;28;20255;-54
2024/04/04 03:19:15;;;;;;;2.37;0.60;;;;;;;10.27;97.20;97376.78;6301478;28;20627;-54
2024/04/04 03:22:16;;;;;;;0.30;0.30;;;;;;;10.20;100.00;97390.25;6309964;28;20196;-55
2024/04/04 03:25:17;;;;;;;0.77;0.60;;;;;;;10.23;96.19;97387.09;6303619;28;20680;-54
2024/04/04 03:28:19;;;;;;;0.97;0.60;;;;;;;10.28;97.71;97395.16;6307937;28;20698;-53
2024/04/04 03:31:20;;;;;;;1.40;0.60;;;;;;;10.29;97.09;97398.63;6306350;28;20213;-54
2024/04/04 03:34:22;;;;;;;1.00;0.43;;;;;;;10.07;100.00;97379.94;6312771;28;20197;-54
2024/04/04 03:37:23;;;;;;;0.57;0.50;;;;;;;10.12;99.18;97395.19;6305274;28;20195;-55
2024/04/04 03:40:24;;;;;;;0.93;0.50;;;;;;;9.99;98.74;97370.53;6298760;28;20614;-56
2024/04/04 03:43:27;;;;;;;0.67;0.50;;;;;;;10.14;100.00;97393.88;6312161;28;20700;-55
2024/04/04 03:46:28;;;;;;;0.53;0.50;;;;;;;10.15;99.83;97406.16;6312221;28;20197;-56
2024/04/04 03:49:29;;;;;;;1.80;0.60;;;;;;;10.05;100.00;97409.47;6307422;28;20210;-55
2024/04/04 03:52:31;;;;;;;1.67;0.60;;;;;;;10.19;96.35;97414.44;6311749;28;20602;-54
2024/04/04 03:55:32;;;;;;;3.53;0.90;;;;;;;10.45;93.17;97413.78;6292012;28;20215;-55
2024/04/04 03:58:33;;;;;;;1.73;0.63;;;;;;;10.35;97.83;97412.84;6293781;28;20200;-55
2024/04/04 04:01:34;;;;;;;1.30;0.60;;;;;;;10.51;92.92;97418.09;6304282;28;20199;-55
2024/04/04 04:04:35;;;;;;;1.17;0.60;;;;;;;10.40;97.51;97420.88;6300986;28;20559;-55
2024/04/04 04:07:36;;;;;;;1.67;0.50;;;;;;;10.22;100.00;97413.97;6300595;28;20208;-54
2024/04/04 04:10:38;;;;;;;1.13;0.50;;;;;;;10.13;100.00;97426.88;6299759;28;20189;-53
2024/04/04 04:13:39;;;;;;;0.90;0.50;;;;;;;10.40;95.92;97427.03;6308241;28;20188;-53
2024/04/04 04:16:40;;;;;;;0.53;0.50;;;;;;;10.36;98.67;97419.75;6304273;28;20196;-54
2024/04/04 04:19:41;;;;;;;1.10;0.60;;;;;;;10.37;98.15;97422.19;6296357;28;20220;-52
2024/04/04 04:22:42;;;;;;;0.67;0.40;;;;;;;10.46;93.81;97434.00;6292620;28;20681;-53
2024/04/04 04:25:43;;;;;;;0.70;0.40;;;;;;;10.47;95.62;97432.16;6296392;28;20194;-59
2024/04/04 04:28:45;;;;;;;0.60;0.40;;;;;;;10.27;97.27;97416.72;6273154;28;20196;-54
2024/04/04 04:31:46;;;;;;;1.90;0.40;;;;;;;10.24;100.00;97438.50;6285867;28;20200;-54
2024/04/04 04:34:47;;;;;;;0.50;0.40;;;;;;;10.28;95.79;97443.09;6284728;28;20194;-54
2024/04/04 04:37:49;;;;;;;0.70;0.40;;;;;;;10.48;93.52;97433.75;6296864;28;20575;-54
2024/04/04 04:40:51;;;;;;;1.70;0.50;;;;;;;10.52;94.72;97435.69;6291140;28;20197;-55
2024/04/04 04:43:52;;;;;;;0.80;0.57;;;;;;;10.57;93.72;97449.06;6286926;28;20573;-53
2024/04/04 04:46:55;;;;;;;1.00;0.37;;;;;;;10.61;95.60;97448.59;6284760;28;20243;-53
2024/04/04 04:49:56;;;;;;;0.63;0.40;;;;;;;10.56;96.24;97447.47;6284838;28;20733;-53
2024/04/04 04:52:57;;;;;;;0.40;0.40;;;;;;;10.58;96.58;97458.66;6285084;28;20331;-53
2024/04/04 04:55:58;;;;;;;0.90;0.70;;;;;;;10.50;99.44;97467.09;6285487;28;20185;-54
2024/04/04 04:58:59;;;;;;;0.60;0.50;;;;;;;10.50;100.00;97460.97;6297787;28;20220;-51
2024/04/04 05:02:00;;;;;;;1.20;0.60;;;;;;;10.50;100.00;97459.09;6278014;28;20202;-52
2024/04/04 05:05:13;;;;;;;0.90;0.60;;;;;;;10.49;100.00;97460.16;6289783;28;20204;-53
2024/04/04 05:08:15;;;;;;;1.00;0.50;;;;;;;10.54;100.00;97465.56;6287682;28;20534;-54
2024/04/04 05:11:16;;;;;;;0.97;0.50;;;;;;;10.52;100.00;97474.84;6287780;28;20201;-55
2024/04/04 05:14:18;;;;;;;0.47;0.40;;;;;;;10.49;100.00;97478.81;6287607;28;20205;-53
2024/04/04 05:17:19;;;;;;;0.50;0.50;;;;;;;10.43;100.00;97481.63;6297047;28;20202;-55
2024/04/04 05:20:20;;;;;;;0.63;0.50;;;;;;;10.35;100.00;97476.75;6287768;28;20228;-52
2024/04/04 05:23:21;;;;;;;0.93;0.53;;;;;;;10.39;100.00;97475.97;6288141;28;20202;-53
2024/04/04 05:26:22;;;;;;;0.43;0.40;;;;;;;10.32;100.00;97488.66;6287840;28;20619;-54
2024/04/04 05:29:23;;;;;;;0.37;0.30;;;;;;;10.41;100.00;97489.88;6288303;28;20670;-55
2024/04/04 05:32:25;;;;;;;0.50;0.40;;;;;;;10.49;100.00;97492.13;6296398;28;20614;-55
2024/04/04 05:35:26;;;;;;;1.03;0.50;;;;;;;10.47;100.00;97474.75;6291333;28;20197;-54
2024/04/04 05:38:29;;;;;;;0.70;0.57;;;;;;;10.58;100.00;97501.28;6288539;28;20198;-54
2024/04/04 05:41:30;;;;;;;0.77;0.37;;;;;;;10.58;100.00;97489.81;6287430;28;20239;-55
2024/04/04 05:44:31;;;;;;;0.77;0.40;;;;;;;10.54;100.00;97500.19;6292317;28;20255;-53
2024/04/04 05:47:32;;;;;;;2.30;0.50;;;;;;;10.53;100.00;97497.75;6296464;28;20635;-54
2024/04/04 05:50:34;;;;;;;0.40;0.40;;;;;;;10.50;100.00;97501.72;6289680;28;20257;-55
2024/04/04 05:53:35;;;;;;;0.70;0.50;;;;;;;10.39;100.00;97513.25;6290290;28;20193;-56
2024/04/04 05:56:36;;;;;;;0.70;0.40;;;;;;;10.43;100.00;97505.59;6301046;28;20617;-54
2024/04/04 05:59:37;;;;;;;1.40;0.47;;;;;;;10.50;100.00;97516.91;6294091;28;20678;-55
2024/04/04 06:02:39;;;;;;;0.80;0.40;;;;;;;10.43;100.00;97522.38;6290680;28;20201;-54
2024/04/04 06:05:41;;;;;;;2.70;0.57;;;;;;;10.28;100.00;97519.50;6290572;28;20196;-55
2024/04/04 06:08:42;;;;;;;0.40;0.40;;;;;;;10.31;100.00;97527.00;6302324;28;20322;-54
2024/04/04 06:11:43;;;;;;;1.30;0.70;;;;;;;10.18;100.00;97527.28;6282359;28;20602;-55
2024/04/04 06:14:47;;;;;;;0.70;0.40;;;;;;;10.18;100.00;97529.97;6282551;28;20190;-54
2024/04/04 06:17:48;;;;;;;1.73;0.60;;;;;;;10.04;100.00;97508.19;6279516;28;20197;-55
2024/04/04 06:20:50;;;;;;;1.43;0.60;;;;;;;10.08;100.00;97526.09;6284864;28;20695;-53
2024/04/04 06:23:51;;;;;;;1.33;0.60;;;;;;;9.98;100.00;97515.28;6285454;28;20198;-55
2024/04/04 06:26:52;;;;;;;1.57;0.50;;;;;;;10.18;100.00;97527.28;6286825;28;20204;-54
2024/04/04 06:29:53;;;;;;;2.20;0.60;;;;;;;10.20;100.00;97525.22;6287471;28;20205;-53
2024/04/04 06:32:54;;;;;;;0.80;0.50;;;;;;;10.24;100.00;97534.34;6283077;28;20702;-55
2024/04/04 06:35:55;;;;;;;1.20;0.50;;;;;;;10.32;100.00;97541.94;6284917;28;20189;-54
2024/04/04 06:38:59;;;;;;;0.40;0.40;;;;;;;10.27;100.00;97526.69;6290951;28;20186;-55
2024/04/04 06:42:01;;;;;;;1.43;0.40;;;;;;;10.59;100.00;97550.88;6286893;28;20673;-54
2024/04/04 06:45:03;;;;;;;0.63;0.50;;;;;;;10.54;100.00;97549.97;6296159;28;20251;-56
2024/04/04 06:48:12;;;;;;;1.37;0.70;;;;;;;10.37;100.00;97560.63;6286509;28;20193;-54
2024/04/04 06:51:15;;;;;;;1.10;0.50;;;;;;;10.31;100.00;97565.09;6280182;28;20225;-55
2024/04/04 06:54:16;;;;;;;1.30;0.47;;;;;;;10.35;100.00;97560.09;6297742;28;20200;-55
2024/04/04 06:57:18;;;;;;;2.33;0.70;;;;;;;10.22;100.00;97545.19;6277456;28;20214;-54
2024/04/04 07:00:20;;;;;;;0.50;0.30;;;;;;;10.39;100.00;97558.53;6294271;28;20581;-55
2024/04/04 07:03:21;;;;;;;1.83;0.40;;;;;;;10.30;100.00;97549.34;6303598;28;20328;-54
2024/04/04 07:06:24;;;;;;;0.70;0.50;;;;;;;10.26;100.00;97537.56;6293685;28;20192;-55
2024/04/04 07:09:26;;;;;;;0.50;0.40;;;;;;;10.42;100.00;97563.38;6293092;28;20206;-53
2024/04/04 07:12:27;;;;;;;0.70;0.40;;;;;;;10.45;100.00;97578.88;6302902;28;20208;-54
2024/04/04 07:15:28;;;;;;;1.03;0.40;;;;;;;10.47;100.00;97578.63;6306590;28;20201;-54
2024/04/04 07:18:31;;;;;;;2.37;0.50;;;;;;;10.50;100.00;97586.94;6298241;28;20226;-55
2024/04/04 07:21:32;;;;;;;0.80;0.33;;;;;;;10.47;100.00;97591.94;6298384;28;20197;-54
2024/04/04 07:24:33;;;;;;;0.47;0.47;;;;;;;10.47;100.00;97592.75;6297030;28;20189;-53
2024/04/04 07:27:35;;;;;;;0.83;0.40;;;;;;;10.43;100.00;97578.31;6295448;28;20198;-54
2024/04/04 07:30:37;;;;;;;1.93;0.63;;;;;;;10.56;100.00;97580.63;6297128;28;20307;-53
2024/04/04 07:33:38;;;;;;;3.60;0.80;;;;;;;10.79;100.00;97578.84;6294006;28;20192;-52
2024/04/04 07:36:40;;;;;;;1.83;0.50;;;;;;;10.89;100.00;97571.00;6300964;28;20195;-53
2024/04/04 07:39:41;;;;;;;1.53;0.50;;;;;;;11.13;100.00;97568.88;6284312;28;20209;-53
2024/04/04 07:42:46;;;;;;;0.73;0.50;;;;;;;11.41;100.00;97565.22;6288673;28;20203;-53
2024/04/04 07:45:48;;;;;;;0.90;0.40;;;;;;;11.61;100.00;97570.75;6289382;28;20272;-53
2024/04/04 07:48:51;;;;;;;2.30;0.60;;;;;;;11.65;100.00;97576.41;6288083;28;20614;-53
2024/04/04 07:51:52;;;;;;;2.83;0.67;;;;;;;11.74;100.00;97582.13;6287367;28;20385;-53
2024/04/04 07:54:53;;;;;;;0.40;0.40;;;;;;;11.78;100.00;97593.91;6291238;28;20194;-54
2024/04/04 07:57:55;;;;;;;1.00;0.60;;;;;;;11.80;100.00;97599.78;6285724;28;20186;-54
2024/04/04 08:00:56;;;;;;;1.67;0.60;;;;;;;11.98;100.00;97596.81;6287025;28;20194;-53
2024/04/04 08:03:58;;;;;;;1.23;0.60;;;;;;;12.01;100.00;97598.16;6282040;28;20213;-54
2024/04/04 08:07:00;;;;;;;0.53;0.53;;;;;;;12.04;100.00;97595.78;6293441;28;20197;-54
2024/04/04 08:10:06;;;;;;;1.40;0.60;;;;;;;12.30;97.65;97599.47;6290857;28;20480;-53
2024/04/04 08:13:08;;;;;;;1.33;0.70;;;;;;;12.36;100.00;97611.84;6288943;28;20210;-54
2024/04/04 08:16:11;;;;;;;0.97;0.50;;;;;;;12.40;99.13;97607.56;6287838;28;20191;-55
2024/04/04 08:19:14;;;;;;;2.23;0.50;;;;;;;12.54;100.00;97620.50;6286841;28;20882;-55
2024/04/04 08:22:16;;;;;;;2.10;0.50;;;;;;;12.83;99.28;97624.47;6290026;28;20214;-53
2024/04/04 08:25:20;;;;;;;2.30;0.50;;;;;;;12.62;97.28;97622.72;6290322;28;20194;-54
2024/04/04 08:28:24;;;;;;;1.07;0.60;;;;;;;12.53;96.12;97625.06;6289437;28;20711;-54
2024/04/04 08:31:26;;;;;;;1.03;0.47;;;;;;;12.42;96.30;97619.91;6294885;28;20537;-54
2024/04/04 08:34:28;;;;;;;1.23;0.70;;;;;;;12.47;99.76;97628.75;6303754;28;20547;-54
2024/04/04 08:37:29;;;;;;;1.10;0.50;;;;;;;12.52;98.93;97626.13;6296067;28;20190;-55
2024/04/04 08:40:31;;;;;;;2.33;0.50;;;;;;;12.65;100.00;97628.34;6273085;28;20890;-53
2024/04/04 08:43:33;;;;;;;2.03;0.60;;;;;;;12.76;100.00;97628.41;6298364;28;20552;-55
2024/04/04 08:46:36;;;;;;;0.97;0.50;;;;;;;12.63;99.92;97635.00;6294895;28;20233;-55
2024/04/04 08:49:39;;;;;;;2.03;0.70;;;;;;;12.77;100.00;97635.38;6290287;28;20205;-54
2024/04/04 08:52:43;;;;;;;2.67;0.50;;;;;;;12.91;96.37;97631.22;6266675;28;20648;-54
2024/04/04 08:55:46;;;;;;;1.27;0.70;;;;;;;12.95;93.81;97628.81;6293666;28;20331;-55
2024/04/04 08:58:48;;;;;;;1.30;0.50;;;;;;;13.01;100.00;97631.28;6278675;28;20903;-55
2024/04/04 09:01:51;;;;;;;2.17;0.70;;;;;;;13.12;99.78;97627.59;6288872;28;20293;-53
2024/04/04 09:05:06;;;;;;;0.87;0.50;;;;;;;13.38;96.25;97625.88;6288089;28;20230;-54
2024/04/04 09:08:08;;;;;;;1.33;0.70;;;;;;;13.41;89.45;97645.97;6282876;28;20191;-55
2024/04/04 09:11:11;;;;;;;1.27;0.60;;;;;;;13.79;91.33;97636.75;6288029;28;20695;-53
2024/04/04 09:14:15;;;;;;;1.00;0.40;;;;;;;13.66;87.20;97592.53;6286718;28;20195;-53
2024/04/04 09:17:19;;;;;;;2.47;0.53;;;;;;;13.68;80.27;97609.09;6287312;28;20197;-53
2024/04/04 09:20:22;;;;;;;1.20;0.53;;;;;;;13.66;81.13;97642.56;6288010;28;20257;-53
2024/04/04 09:23:23;;;;;;;1.17;0.80;;;;;;;13.67;81.72;97639.63;6299584;28;20903;-53
2024/04/04 09:26:25;;;;;;;0.80;0.63;;;;;;;13.64;79.15;97636.66;6293101;28;20629;-54
2024/04/04 09:29:27;;;;;;;1.40;0.77;;;;;;;14.04;82.41;97640.53;6290062;28;20211;-54
2024/04/04 09:32:28;;;;;;;1.90;0.50;;;;;;;14.27;79.12;97633.88;6289242;28;20553;-52
2024/04/04 09:35:31;;;;;;;0.80;0.40;;;;;;;14.38;81.51;97612.19;6298554;28;20204;-54
2024/04/04 09:38:33;;;;;;;1.43;0.50;;;;;;;14.67;78.67;97638.47;6293924;28;20191;-55
2024/04/04 09:41:38;;;;;;;2.60;0.50;;;;;;;14.64;72.97;97634.47;6279341;28;20203;-54
2024/04/04 09:44:40;;;;;;;3.80;0.80;;;;;;;14.73;76.68;97632.06;6294006;28;20734;-52
2024/04/04 09:47:48;;;;;;;1.33;0.60;;;;;;;14.78;78.50;97628.53;6284151;28;20316;-52
2024/04/04 09:50:52;;;;;;;1.93;0.70;;;;;;;15.28;79.82;97627.66;6292896;28;20210;-51
2024/04/04 09:53:57;;;;;;;1.50;0.80;;;;;;;15.53;69.29;97623.28;6293323;28;20194;-51
2024/04/04 09:56:58;;;;;;;1.20;0.50;;;;;;;15.71;67.35;97618.13;6294306;28;20186;-52
2024/04/04 10:00:14;;;;;;;3.30;0.77;;;;;;;15.68;69.11;97612.50;6284564;28;20175;-50
2024/04/04 10:03:15;;;;;;;1.13;0.60;;;;;;;15.70;65.50;97618.38;6296322;28;20182;-51
2024/04/04 10:06:40;;;;;;;1.83;0.40;;;;;;;15.28;68.10;97616.91;6295514;28;20609;-53
2024/04/04 10:09:42;;;;;;;0.67;0.40;;;;;;;15.43;69.01;97616.84;6291899;28;20375;-55
2024/04/04 10:12:45;;;;;;;0.90;0.53;;;;;;;15.32;67.19;97607.25;6282189;28;20182;-53
2024/04/04 10:15:50;;;;;;;2.17;0.70;;;;;;;15.29;64.22;97623.09;6296918;28;20663;-54
2024/04/04 10:18:54;;;;;;;2.10;0.40;;;;;;;15.30;67.05;97632.75;6307863;28;20701;-53
2024/04/04 10:21:55;;;;;;;2.67;0.60;;;;;;;15.29;66.04;97612.34;6310122;28;20192;-50
2024/04/04 10:25:02;;;;;;;0.87;0.60;;;;;;;15.49;69.44;97614.94;6308528;28;20197;-53
2024/04/04 10:28:07;;;;;;;1.90;0.57;;;;;;;15.49;64.24;97625.69;6302355;28;20198;-55
2024/04/04 10:31:08;;;;;;;1.27;0.50;;;;;;;15.36;66.75;97594.06;6292462;28;20283;-54
2024/04/04 10:34:12;;;;;;;1.40;0.50;;;;;;;15.68;61.54;97597.19;6310901;28;20194;-53
2024/04/04 10:37:16;;;;;;;0.70;0.40;;;;;;;15.76;61.96;97605.72;6303406;28;20240;-52
2024/04/04 10:40:24;;;;;;;3.00;0.77;;;;;;;15.91;63.81;97574.22;6302776;28;20853;-51
2024/04/04 10:43:25;;;;;;;1.70;0.40;;;;;;;16.24;59.55;97586.06;6313664;28;20193;-55
2024/04/04 10:46:29;;;;;;;1.00;0.30;;;;;;;16.30;58.49;97583.34;6307919;28;20209;-54
2024/04/04 10:49:30;;;;;;;0.70;0.40;;;;;;;16.54;57.68;97576.13;6304517;28;20240;-52
2024/04/04 10:52:32;;;;;;;1.43;0.50;;;;;;;16.47;52.06;97500.38;6313113;28;20284;-52
2024/04/04 10:55:34;;;;;;;1.53;0.40;;;;;;;16.95;53.90;97547.00;6319236;28;20238;-55
2024/04/04 10:58:38;;;;;;;2.57;0.47;;;;;;;16.91;54.81;97558.63;6313976;28;20198;-53
2024/04/04 11:01:40;;;;;;;0.40;0.30;;;;;;;17.29;53.88;97548.75;6299401;28;20185;-53
2024/04/04 11:04:45;;;;;;;0.67;0.50;;;;;;;17.30;53.73;97552.25;6304706;28;20713;-54
2024/04/04 11:07:46;;;;;;;1.60;0.30;;;;;;;17.39;52.64;97567.47;6320032;28;20205;-54
2024/04/04 11:10:48;;;;;;;1.23;0.40;;;;;;;17.38;51.94;97543.50;6312475;28;20198;-52
2024/04/04 11:13:54;;;;;;;2.47;0.60;;;;;;;17.40;50.15;97561.00;6302791;28;20408;-52
2024/04/04 11:16:55;;;;;;;0.70;0.40;;;;;;;17.71;54.01;97566.78;6307333;28;20221;-54
2024/04/04 11:20:14;;;;;;;0.83;0.50;;;;;;;17.63;50.53;97556.63;6316494;28;20741;-54
2024/04/04 11:23:15;;;;;;;0.20;0.20;;;;;;;17.19;49.65;97560.44;6316927;28;20198;-54
2024/04/04 11:26:20;;;;;;;0.60;0.30;;;;;;;16.95;49.07;97560.44;6310685;28;20186;-52
2024/04/04 11:29:21;;;;;;;0.70;0.50;;;;;;;17.00;51.48;97543.44;6302647;28;20194;-54
2024/04/04 11:32:23;;;;;;;0.77;0.30;;;;;;;16.88;49.89;97549.22;6302375;28;20187;-54
2024/04/04 11:35:24;;;;;;;0.70;0.30;;;;;;;16.82;54.02;97554.94;6307620;28;20193;-55
2024/04/04 11:38:26;;;;;;;0.40;0.30;;;;;;;17.05;51.10;97564.13;6310845;28;20193;-56
2024/04/04 11:41:27;;;;;;;0.73;0.57;;;;;;;17.04;50.77;97536.38;6306065;28;20205;-52
2024/04/04 11:44:28;;;;;;;0.53;0.30;;;;;;;17.35;54.89;97555.69;6308659;28;20193;-55
2024/04/04 11:47:30;;;;;;;0.77;0.40;;;;;;;17.66;53.77;97534.53;6312173;28;20197;-53
2024/04/04 11:50:34;;;;;;;1.57;0.30;;;;;;;17.74;51.82;97544.69;6305408;28;20220;-54
2024/04/04 11:53:35;;;;;;;2.40;0.60;;;;;;;17.98;50.25;97535.69;6307280;28;20201;-54
2024/04/04 11:56:40;;;;;;;0.53;0.37;;;;;;;17.77;47.42;97538.69;6284998;28;20182;-52
2024/04/04 11:59:42;;;;;;;1.10;0.40;;;;;;;17.68;48.77;97528.84;6297425;28;20239;-52
2024/04/04 12:02:43;;;;;;;0.20;0.20;;;;;;;17.73;47.60;97521.53;6284276;28;20288;-54
2024/04/04 12:05:44;;;;;;;0.20;0.20;;;;;;;17.74;47.80;97509.66;6299916;28;20189;-55
2024/04/04 12:08:47;;;;;;;0.90;0.37;;;;;;;17.64;48.83;97514.38;6302003;28;20200;-54
2024/04/04 12:11:48;;;;;;;0.30;0.20;;;;;;;17.57;47.61;97489.66;6301078;28;20210;-53
2024/04/04 12:14:49;;;;;;;0.33;0.20;;;;;;;17.73;47.69;97497.28;6307554;28;20197;-55
2024/04/04 12:19:25;;;;;;;0.30;0.30;;;;;;;17.69;49.65;97490.03;6300129;28;20220;-53
2024/04/04 12:21:16;;;;;;;0.80;0.20;;;;;;;17.98;46.68;97490.69;6301876;28;20189;-56
2024/04/04 12:24:17;;;;;;;0.20;0.20;;;;;;;17.52;47.44;97493.22;6300475;28;20194;-52
2024/04/04 12:27:18;;;;;;;1.97;0.40;;;;;;;17.54;48.30;97480.28;6300482;28;20665;-53
2024/04/04 12:30:19;;;;;;;0.27;0.27;;;;;;;17.81;45.36;97495.00;6300059;28;20670;-53
2024/04/04 12:33:21;;;;;;;0.20;0.20;;;;;;;17.82;46.72;97499.31;6307691;28;20611;-51
2024/04/04 12:36:22;;;;;;;0.27;0.27;;;;;;;17.91;47.40;97505.63;6300403;28;20192;-54
2024/04/04 12:39:26;;;;;;;0.33;0.20;;;;;;;17.83;45.03;97508.97;6286528;28;20672;-52
2024/04/04 12:42:27;;;;;;;1.33;0.30;;;;;;;17.59;47.04;97493.69;6296323;28;20197;-53
2024/04/04 12:45:28;;;;;;;0.90;0.30;;;;;;;17.52;46.36;97509.41;6303314;28;20201;-52
2024/04/04 12:48:33;;;;;;;0.23;0.20;;;;;;;17.49;46.20;97486.56;6283544;28;20686;-53
2024/04/04 12:51:34;;;;;;;0.30;0.30;;;;;;;17.48;45.54;97501.09;6289222;28;20206;-54
2024/04/04 12:54:35;;;;;;;0.20;0.20;;;;;;;17.65;46.23;97497.09;6299171;28;20752;-51
2024/04/04 12:57:37;;;;;;;0.50;0.30;;;;;;;17.76;45.48;97502.06;6311493;28;20201;-51
2024/04/04 13:00:38;;;;;;;0.40;0.30;;;;;;;17.98;47.37;97489.88;6305243;28;20941;-52
2024/04/04 13:03:41;;;;;;;0.30;0.30;;;;;;;18.05;46.43;97498.41;6309489;28;20680;-53
2024/04/04 13:06:42;;;;;;;0.40;0.30;;;;;;;18.26;46.38;97505.03;6307844;28;20289;-53
2024/04/04 13:09:46;;;;;;;0.47;0.30;;;;;;;18.37;45.10;97492.19;6310250;28;20201;-54
2024/04/04 13:12:47;;;;;;;1.13;0.37;;;;;;;18.43;46.20;97498.31;6307248;28;20643;-53
2024/04/04 13:15:48;;;;;;;2.47;0.40;;;;;;;18.50;46.52;97490.63;6301585;28;20239;-54
2024/04/04 13:18:49;;;;;;;0.20;0.20;;;;;;;18.66;43.67;97475.75;6309386;28;20711;-54
2024/04/04 13:21:50;;;;;;;0.20;0.20;;;;;;;18.64;44.48;97486.03;6282461;28;20189;-53
2024/04/04 13:24:52;;;;;;;0.60;0.20;;;;;;;18.60;42.08;97468.03;6301743;28;20234;-53
2024/04/04 13:27:53;;;;;;;0.83;0.40;;;;;;;18.48;43.10;97465.84;6306095;28;20206;-54
2024/04/04 13:30:55;;;;;;;0.30;0.20;;;;;;;18.63;43.48;97479.06;6306903;28;20665;-54
2024/04/04 13:33:56;;;;;;;0.40;0.20;;;;;;;18.72;41.17;97485.38;6304328;28;20197;-54
2024/04/04 13:36:57;;;;;;;1.13;0.30;;;;;;;18.69;43.83;97493.28;6307171;28;20190;-54
2024/04/04 13:39:59;;;;;;;0.27;0.27;;;;;;;18.60;44.22;97497.72;6303653;28;20840;-52
2024/04/04 13:43:01;;;;;;;1.20;0.20;;;;;;;18.66;45.65;97488.44;6305824;28;20205;-54
2024/04/04 13:46:03;;;;;;;0.83;0.40;;;;;;;18.86;44.61;97487.28;6299678;28;20406;-54
2024/04/04 13:49:05;;;;;;;0.53;0.20;;;;;;;18.78;43.55;97480.69;6298679;28;20186;-53
2024/04/04 13:52:06;;;;;;;0.20;0.20;;;;;;;18.66;42.72;97478.44;6311950;28;20231;-53
2024/04/04 13:55:10;;;;;;;0.50;0.20;;;;;;;18.71;46.48;97472.19;6307920;28;20203;-55
2024/04/04 13:58:12;;;;;;;0.77;0.30;;;;;;;18.65;42.10;97468.75;6318789;28;20626;-53
2024/04/04 14:01:13;;;;;;;0.40;0.27;;;;;;;18.81;42.09;97482.78;6314430;28;20209;-53
2024/04/04 14:04:14;;;;;;;0.63;0.20;;;;;;;18.60;42.22;97468.84;6292480;28;20219;-54
2024/04/04 14:07:15;;;;;;;0.53;0.10;;;;;;;18.52;43.20;97459.56;6308103;28;20330;-52
2024/04/04 14:10:16;;;;;;;1.40;0.30;;;;;;;18.79;42.39;97461.50;6286908;28;20236;-53
2024/04/04 14:13:18;;;;;;;0.17;0.17;;;;;;;18.77;43.54;97465.59;6314345;28;20208;-53
2024/04/04 14:16:20;;;;;;;0.53;0.20;;;;;;;18.85;40.34;97475.69;6311343;28;20200;-50